createdAt,value
2017-12-10T00:01:17.357Z,12.00
2017-12-10T00:03:47.349Z,16.50
2017-12-10T00:06:17.859Z,8.20
2017-12-10T00:08:46.790Z,13.77
2017-12-10T00:11:15.674Z,11.77
2017-12-10T00:13:44.593Z,7.67
2017-12-10T00:16:13.582Z,8.37
2017-12-10T00:18:42.612Z,6.80
2017-12-10T00:21:11.594Z,14.33
2017-12-10T00:23:40.547Z,8.30
2017-12-10T00:26:09.489Z,11.00
2017-12-10T00:28:38.499Z,8.00
2017-12-10T00:31:09.078Z,6.97
2017-12-10T00:33:37.985Z,10.03
2017-12-10T00:36:06.944Z,12.33
2017-12-10T00:38:35.923Z,19.67
2017-12-10T00:41:04.778Z,16.13
2017-12-10T00:43:33.699Z,17.20
2017-12-10T00:46:02.693Z,13.93
2017-12-10T00:48:31.617Z,7.90
2017-12-10T00:51:00.579Z,16.77
2017-12-10T00:53:30.501Z,9.00
2017-12-10T00:55:59.506Z,7.77
2017-12-10T00:58:28.436Z,13.90
2017-12-10T01:00:57.415Z,7.80
2017-12-10T01:03:26.319Z,9.80
2017-12-10T01:05:55.281Z,4.47
2017-12-10T01:08:24.253Z,10.20
2017-12-10T01:10:53.268Z,4.63
2017-12-10T01:13:22.243Z,17.70
2017-12-10T01:15:51.274Z,24.77
2017-12-10T01:18:20.228Z,15.17
2017-12-10T01:20:49.154Z,14.63
2017-12-10T01:23:18.159Z,21.33
2017-12-10T01:25:47.248Z,23.27
2017-12-10T01:28:17.942Z,29.67
2017-12-10T01:30:47.243Z,12.63
2017-12-10T01:33:16.437Z,15.73
2017-12-10T01:35:45.708Z,10.37
2017-12-10T01:40:50.832Z,7.60
2017-12-10T01:43:20.024Z,15.20
2017-12-10T01:45:52.365Z,18.23
2017-12-10T01:48:22.276Z,12.13
2017-12-10T01:50:52.722Z,13.60
2017-12-10T01:53:21.816Z,10.83
2017-12-10T01:55:51.006Z,13.43
2017-12-10T01:58:20.096Z,7.73
2017-12-10T02:03:25.665Z,20.83
2017-12-10T02:05:54.758Z,10.57
2017-12-10T02:08:25.623Z,15.10
2017-12-10T02:10:56.874Z,12.70
2017-12-10T02:13:26.029Z,7.37
2017-12-10T02:15:54.993Z,8.57
2017-12-10T02:18:24.807Z,12.87
2017-12-10T02:20:53.868Z,10.03
2017-12-10T02:23:23.063Z,6.37
2017-12-10T02:25:59.638Z,8.07
2017-12-10T02:28:28.922Z,7.50
2017-12-10T02:31:01.475Z,9.30
2017-12-10T02:33:30.863Z,8.13
2017-12-10T02:36:00.837Z,17.13
2017-12-10T02:38:31.058Z,19.93
2017-12-10T02:41:00.296Z,10.87
2017-12-10T02:43:29.421Z,17.07
2017-12-10T02:48:34.200Z,14.37
2017-12-10T02:51:04.111Z,11.73
2017-12-10T02:53:35.986Z,14.87
2017-12-10T02:56:05.125Z,16.40
2017-12-10T02:58:34.304Z,20.93
2017-12-10T03:01:05.296Z,20.80
2017-12-10T03:03:35.221Z,17.70
2017-12-10T03:06:05.244Z,30.67
2017-12-10T03:08:35.488Z,27.23
2017-12-10T03:11:04.710Z,14.97
2017-12-10T03:13:33.764Z,28.70
2017-12-10T03:16:03.059Z,24.47
2017-12-10T03:18:32.295Z,17.50
2017-12-10T03:21:01.513Z,13.90
2017-12-10T03:26:06.972Z,32.37
2017-12-10T03:28:36.976Z,17.50
2017-12-10T03:31:10.160Z,43.17
2017-12-10T03:33:39.165Z,23.07
2017-12-10T03:36:08.324Z,29.07
2017-12-10T03:38:37.626Z,14.00
2017-12-10T03:49:42.836Z,12.90
2017-12-10T03:52:11.928Z,15.43
2017-12-10T03:54:42.855Z,14.37
2017-12-10T03:57:13.311Z,19.23
2017-12-10T03:59:42.387Z,20.60
2017-12-10T04:02:12.546Z,16.03
2017-12-10T04:04:41.541Z,15.60
2017-12-10T04:07:10.810Z,16.23
2017-12-10T04:09:40.741Z,18.17
2017-12-10T04:12:09.819Z,11.13
2017-12-10T04:14:39.002Z,10.93
2017-12-10T04:17:08.315Z,10.47
2017-12-10T04:19:37.293Z,8.90
2017-12-10T04:22:07.145Z,5.03
2017-12-10T04:27:10.353Z,4.63
2017-12-10T04:29:39.416Z,6.73
2017-12-10T04:32:10.256Z,11.13
2017-12-10T04:34:39.454Z,5.23
2017-12-10T04:37:08.632Z,3.40
2017-12-10T04:39:37.747Z,2.07
2017-12-10T04:42:06.683Z,2.17
2017-12-10T04:44:35.738Z,2.00
2017-12-10T04:47:05.623Z,1.80
2017-12-10T04:49:34.658Z,1.70
2017-12-10T04:52:03.736Z,3.00
2017-12-10T04:54:39.452Z,1.50
2017-12-10T04:57:08.485Z,1.80
2017-12-10T04:59:37.778Z,2.40
2017-12-10T05:02:07.800Z,2.33
2017-12-10T05:04:37.005Z,6.20
2017-12-10T05:07:06.806Z,2.50
2017-12-10T05:09:36.045Z,4.83
2017-12-10T05:12:05.136Z,3.90
2017-12-10T05:14:34.333Z,1.37
2017-12-10T05:17:04.620Z,2.30
2017-12-10T05:19:34.013Z,1.40
2017-12-10T05:22:03.164Z,0.90
2017-12-10T05:24:38.159Z,0.90
2017-12-10T05:27:08.010Z,0.90
2017-12-10T05:29:37.069Z,0.90
2017-12-10T05:32:08.937Z,0.87
2017-12-10T05:34:39.975Z,2.50
2017-12-10T05:37:08.943Z,4.37
2017-12-10T05:39:39.222Z,2.50
2017-12-10T05:42:08.253Z,3.07
2017-12-10T05:44:37.318Z,2.93
2017-12-10T05:47:07.196Z,1.83
2017-12-10T05:49:36.376Z,1.40
2017-12-10T05:52:05.476Z,1.67
2017-12-10T05:54:35.507Z,1.00
2017-12-10T05:57:05.411Z,1.27
2017-12-10T05:59:34.622Z,1.48
2017-12-10T06:02:04.429Z,2.40
2017-12-10T06:04:34.074Z,1.20
2017-12-10T06:07:03.860Z,0.40
2017-12-10T06:12:08.271Z,4.00
2017-12-10T06:14:37.245Z,2.70
2017-12-10T06:17:06.195Z,3.33
2017-12-10T06:19:35.136Z,3.03
2017-12-10T06:22:04.070Z,1.70
2017-12-10T06:24:33.938Z,1.62
2017-12-10T06:27:02.900Z,1.95
2017-12-10T06:29:31.839Z,1.90
2017-12-10T06:32:04.800Z,2.90
2017-12-10T06:34:33.778Z,3.10
2017-12-10T06:37:02.788Z,3.72
2017-12-10T06:39:31.792Z,5.25
2017-12-10T06:42:00.749Z,4.60
2017-12-10T06:44:29.681Z,3.70
2017-12-10T06:46:59.463Z,3.80
2017-12-10T06:49:28.448Z,2.42
2017-12-10T06:51:57.457Z,3.67
2017-12-10T06:57:01.318Z,4.70
2017-12-10T06:59:30.446Z,4.40
2017-12-10T07:01:59.522Z,3.33
2017-12-10T07:04:29.343Z,4.12
2017-12-10T07:07:00.057Z,4.35
2017-12-10T07:09:31.010Z,4.03
2017-12-10T07:12:00.359Z,3.60
2017-12-10T07:14:30.532Z,3.72
2017-12-10T07:16:59.894Z,3.00
2017-12-10T07:19:35.461Z,3.87
2017-12-10T07:22:05.375Z,4.47
2017-12-10T07:24:35.318Z,3.62
2017-12-10T07:27:04.413Z,3.00
2017-12-10T07:29:34.284Z,3.90
2017-12-10T07:32:03.350Z,3.60
2017-12-10T07:34:34.394Z,3.75
2017-12-10T07:37:04.227Z,5.93
2017-12-10T07:39:33.236Z,3.25
2017-12-10T07:42:02.167Z,3.55
2017-12-10T07:44:31.193Z,8.05
2017-12-10T07:47:00.147Z,3.90
2017-12-10T07:49:29.158Z,3.83
2017-12-10T07:51:59.151Z,4.35
2017-12-10T07:54:29.305Z,4.72
2017-12-10T07:56:58.387Z,4.10
2017-12-10T07:59:28.072Z,3.50
2017-12-10T08:01:57.108Z,5.35
2017-12-10T08:04:27.185Z,3.20
2017-12-10T08:06:56.810Z,5.37
2017-12-10T08:09:26.013Z,4.00
2017-12-10T08:11:55.215Z,4.57
2017-12-10T08:14:24.452Z,3.22
2017-12-10T08:16:53.607Z,2.50
2017-12-10T08:19:22.837Z,3.40
2017-12-10T08:21:52.379Z,4.10
2017-12-10T08:24:22.060Z,8.25
2017-12-10T08:26:57.910Z,4.25
2017-12-10T08:29:27.092Z,5.65
2017-12-10T08:31:56.273Z,4.43
2017-12-10T08:37:02.517Z,3.47
2017-12-10T08:39:32.676Z,3.20
2017-12-10T08:42:06.053Z,4.30
2017-12-10T08:44:35.125Z,3.35
2017-12-10T08:47:05.349Z,4.43
2017-12-10T08:52:12.071Z,2.87
2017-12-10T08:54:41.130Z,2.62
2017-12-10T08:57:10.477Z,6.93
2017-12-10T08:59:40.036Z,5.97
2017-12-10T09:02:09.278Z,4.20
2017-12-10T09:04:41.101Z,3.30
2017-12-10T09:07:11.027Z,7.60
2017-12-10T09:09:41.113Z,4.40
2017-12-10T09:12:10.892Z,3.28
2017-12-10T09:14:40.030Z,4.75
2017-12-10T09:17:09.810Z,3.50
2017-12-10T09:19:39.095Z,2.80
2017-12-10T09:22:08.386Z,3.35
2017-12-10T09:24:37.571Z,3.37
2017-12-10T09:27:10.346Z,4.00
2017-12-10T09:29:42.015Z,3.60
2017-12-10T09:32:12.354Z,3.85
2017-12-10T09:34:41.322Z,2.95
2017-12-10T09:37:10.951Z,3.40
2017-12-10T09:39:40.773Z,4.50
2017-12-10T09:42:10.752Z,4.25
2017-12-10T09:44:40.201Z,3.58
2017-12-10T09:49:43.872Z,3.47
2017-12-10T09:52:12.997Z,4.28
2017-12-10T09:54:44.935Z,6.63
2017-12-10T09:57:14.386Z,3.08
2017-12-10T09:59:43.679Z,3.87
2017-12-10T10:02:14.270Z,4.32
2017-12-10T10:04:43.453Z,3.58
2017-12-10T10:07:12.675Z,4.78
2017-12-10T10:09:42.791Z,4.37
2017-12-10T10:12:13.154Z,4.00
2017-12-10T10:14:42.437Z,3.95
2017-12-10T10:17:13.154Z,3.08
2017-12-10T10:19:42.210Z,4.25
2017-12-10T10:22:11.300Z,3.25
2017-12-10T10:24:40.580Z,5.87
2017-12-10T10:27:12.683Z,11.32
2017-12-10T10:29:42.214Z,3.40
2017-12-10T10:32:11.412Z,4.47
2017-12-10T10:34:41.613Z,3.60
2017-12-10T10:39:46.179Z,10.65
2017-12-10T10:42:16.456Z,4.22
2017-12-10T10:44:45.743Z,8.00
2017-12-10T10:47:14.957Z,8.43
2017-12-10T10:49:44.023Z,3.58
2017-12-10T10:52:13.566Z,8.00
2017-12-10T10:54:43.044Z,5.10
2017-12-10T10:57:13.018Z,4.82
2017-12-10T10:59:42.334Z,6.82
2017-12-10T11:02:11.494Z,4.07
2017-12-10T11:04:40.734Z,3.72
2017-12-10T11:07:10.705Z,4.75
2017-12-10T11:09:40.033Z,6.97
2017-12-10T11:12:09.423Z,4.90
2017-12-10T11:14:38.750Z,4.50
2017-12-10T11:17:08.508Z,6.28
2017-12-10T11:19:38.082Z,4.45
2017-12-10T11:22:08.198Z,4.72
2017-12-10T11:24:38.052Z,3.90
2017-12-10T11:27:08.110Z,5.53
2017-12-10T11:29:38.971Z,4.25
2017-12-10T11:32:08.145Z,5.03
2017-12-10T11:34:38.298Z,5.18
2017-12-10T11:37:07.552Z,5.83
2017-12-10T11:39:36.961Z,4.45
2017-12-10T11:42:06.276Z,5.03
2017-12-10T11:44:35.449Z,4.70
2017-12-10T11:47:04.863Z,5.00
2017-12-10T11:49:34.143Z,6.32
2017-12-10T11:52:03.288Z,5.17
2017-12-10T11:54:32.537Z,4.47
2017-12-10T11:57:01.984Z,6.23
2017-12-10T11:59:32.802Z,5.90
2017-12-10T12:02:02.169Z,7.00
2017-12-10T12:04:31.321Z,5.10
2017-12-10T12:07:00.871Z,7.17
2017-12-10T12:09:31.106Z,7.10
2017-12-10T12:12:00.082Z,8.90
2017-12-10T12:14:29.943Z,6.77
2017-12-10T12:16:59.098Z,5.13
2017-12-10T12:19:28.400Z,5.72
2017-12-10T12:21:59.220Z,6.97
2017-12-10T12:24:28.497Z,6.40
2017-12-10T12:26:57.781Z,7.77
2017-12-10T12:29:28.082Z,5.50
2017-12-10T12:31:58.117Z,5.40
2017-12-10T12:34:27.780Z,6.67
2017-12-10T12:39:34.327Z,5.40
2017-12-10T12:42:03.750Z,6.93
2017-12-10T12:44:32.862Z,5.90
2017-12-10T12:47:03.139Z,7.80
2017-12-10T12:49:33.522Z,7.97
2017-12-10T12:52:02.665Z,7.12
2017-12-10T12:54:32.102Z,7.70
2017-12-10T12:57:01.528Z,6.40
2017-12-10T12:59:31.673Z,6.87
2017-12-10T13:02:01.049Z,8.73
2017-12-10T13:04:30.329Z,7.60
2017-12-10T13:06:59.992Z,7.75
2017-12-10T13:09:29.988Z,13.15
2017-12-10T13:11:59.332Z,8.18
2017-12-10T13:14:28.628Z,6.32
2017-12-10T13:16:58.113Z,8.43
2017-12-10T13:19:28.852Z,6.12
2017-12-10T13:24:34.491Z,6.45
2017-12-10T13:27:04.673Z,11.52
2017-12-10T13:29:35.040Z,6.97
2017-12-10T13:32:05.921Z,8.23
2017-12-10T13:34:35.018Z,7.62
2017-12-10T13:37:14.759Z,9.88
2017-12-10T13:39:44.325Z,9.07
2017-12-10T13:42:14.235Z,13.02
2017-12-10T13:44:44.160Z,9.25
2017-12-10T13:47:13.301Z,6.53
2017-12-10T13:49:42.597Z,9.50
2017-12-10T13:52:11.963Z,10.70
2017-12-10T13:54:42.038Z,8.48
2017-12-10T13:57:11.209Z,6.50
2017-12-10T13:59:40.791Z,11.70
2017-12-10T14:02:10.529Z,9.98
2017-12-10T14:04:40.290Z,7.68
2017-12-10T14:07:09.642Z,8.02
2017-12-10T14:09:41.162Z,12.50
2017-12-10T14:14:45.417Z,10.60
2017-12-10T14:17:15.690Z,8.88
2017-12-10T14:19:48.141Z,11.18
2017-12-10T14:22:17.489Z,10.73
2017-12-10T14:24:46.636Z,11.57
2017-12-10T14:27:18.900Z,6.97
2017-12-10T14:29:48.156Z,8.30
2017-12-10T14:32:17.397Z,6.65
2017-12-10T14:34:48.342Z,8.02
2017-12-10T14:37:21.978Z,19.85
2017-12-10T14:39:51.379Z,15.07
2017-12-10T14:42:21.358Z,10.75
2017-12-10T14:44:50.646Z,5.68
2017-12-10T14:47:22.330Z,9.40
2017-12-10T14:49:51.340Z,9.20
2017-12-10T14:52:20.506Z,11.98
2017-12-10T14:54:49.657Z,8.77
2017-12-10T14:57:19.468Z,9.45
2017-12-10T14:59:49.668Z,8.10
2017-12-10T15:02:20.577Z,12.05
2017-12-10T15:04:49.884Z,15.15
2017-12-10T15:07:19.897Z,12.35
2017-12-10T15:09:50.612Z,11.05
2017-12-10T15:12:22.437Z,8.98
2017-12-10T15:14:53.078Z,10.90
2017-12-10T15:17:22.669Z,10.32
2017-12-10T15:19:51.835Z,11.88
2017-12-10T15:22:21.045Z,15.88
2017-12-10T15:24:50.294Z,11.65
2017-12-10T15:27:20.221Z,12.23
2017-12-10T15:29:49.486Z,13.45
2017-12-10T15:32:18.640Z,10.32
2017-12-10T15:34:49.217Z,10.35
2017-12-10T15:37:19.290Z,11.52
2017-12-10T15:39:55.128Z,6.30
2017-12-10T15:42:24.201Z,7.90
2017-12-10T15:44:53.568Z,9.82
2017-12-10T15:47:22.544Z,5.68
2017-12-10T15:49:52.407Z,5.70
2017-12-10T15:52:21.515Z,13.25
2017-12-10T15:54:51.539Z,10.82
2017-12-10T15:57:21.334Z,9.25
2017-12-10T15:59:50.518Z,6.35
2017-12-10T16:02:20.841Z,8.05
2017-12-10T16:04:49.824Z,8.43
2017-12-10T16:07:18.837Z,7.40
2017-12-10T16:09:47.882Z,7.93
2017-12-10T16:12:19.891Z,11.02
2017-12-10T16:14:49.193Z,10.13
2017-12-10T16:17:18.491Z,12.77
2017-12-10T16:19:48.557Z,9.98
2017-12-10T16:22:17.758Z,8.35
2017-12-10T16:24:47.096Z,9.77
2017-12-10T16:27:16.545Z,7.57
2017-12-10T16:29:46.325Z,6.70
2017-12-10T16:32:15.831Z,6.87
2017-12-10T16:34:45.389Z,8.82
2017-12-10T16:37:15.167Z,10.98
2017-12-10T16:39:44.653Z,9.10
2017-12-10T16:42:20.285Z,9.80
2017-12-10T16:44:49.314Z,10.07
2017-12-10T16:47:18.796Z,9.55
2017-12-10T16:49:51.027Z,8.60
2017-12-10T16:52:20.376Z,10.27
2017-12-10T16:54:49.613Z,9.88
2017-12-10T16:57:18.923Z,6.68
2017-12-10T16:59:48.219Z,8.63
2017-12-10T17:02:17.333Z,10.98
2017-12-10T17:04:50.338Z,9.88
2017-12-10T17:07:19.592Z,6.65
2017-12-10T17:09:48.708Z,6.78
2017-12-10T17:12:19.800Z,10.40
2017-12-10T17:14:49.146Z,12.00
2017-12-10T17:17:18.409Z,13.43
2017-12-10T17:19:50.162Z,14.07
2017-12-10T17:22:19.458Z,14.25
2017-12-10T17:24:49.541Z,17.80
2017-12-10T17:27:21.751Z,16.25
2017-12-10T17:29:50.905Z,16.95
2017-12-10T17:32:19.952Z,15.00
2017-12-10T17:34:48.935Z,17.87
2017-12-10T17:37:17.889Z,19.40
2017-12-10T17:39:46.877Z,17.02
2017-12-10T17:42:15.965Z,18.92
2017-12-10T17:44:45.046Z,18.55
2017-12-10T17:47:14.087Z,22.02
2017-12-10T17:49:43.252Z,31.73
2017-12-10T17:52:12.253Z,25.77
2017-12-10T17:54:41.263Z,25.10
2017-12-10T17:57:10.504Z,17.40
2017-12-10T17:59:39.696Z,25.12
2017-12-10T18:02:08.672Z,20.73
2017-12-10T18:04:40.461Z,16.87
2017-12-10T18:07:09.459Z,20.50
2017-12-10T18:09:38.581Z,22.80
2017-12-10T18:12:07.638Z,20.62
2017-12-10T18:14:36.624Z,14.63
2017-12-10T18:17:05.938Z,16.08
2017-12-10T18:19:35.398Z,16.20
2017-12-10T18:22:04.465Z,17.70
2017-12-10T18:24:34.098Z,19.95
2017-12-10T18:27:06.306Z,19.02
2017-12-10T18:29:35.603Z,18.27
2017-12-10T18:32:04.964Z,15.73
2017-12-10T18:34:34.361Z,17.83
2017-12-10T18:37:03.871Z,11.88
2017-12-10T18:39:33.217Z,15.20
2017-12-10T18:42:02.532Z,15.40
2017-12-10T18:44:31.829Z,11.27
2017-12-10T18:47:00.982Z,13.10
2017-12-10T18:49:32.045Z,11.43
2017-12-10T18:52:01.560Z,13.10
2017-12-10T18:54:30.616Z,14.15
2017-12-10T18:56:59.943Z,19.33
2017-12-10T18:59:29.268Z,19.12
2017-12-10T19:01:58.301Z,20.52
2017-12-10T19:04:27.500Z,19.85
2017-12-10T19:06:56.859Z,18.85
2017-12-10T19:09:26.905Z,22.67
2017-12-10T19:11:57.733Z,16.30
2017-12-10T19:14:26.827Z,18.25
2017-12-10T19:16:56.128Z,24.37
2017-12-10T19:19:25.614Z,11.82
2017-12-10T19:21:54.935Z,15.30
2017-12-10T19:24:25.092Z,20.23
2017-12-10T19:26:54.874Z,14.07
2017-12-10T19:29:25.685Z,18.35
2017-12-10T19:31:56.743Z,20.60
2017-12-10T19:34:26.630Z,13.60
2017-12-10T19:36:55.917Z,18.25
2017-12-10T19:39:25.270Z,13.10
2017-12-10T19:41:54.382Z,15.65
2017-12-10T19:44:24.406Z,12.60
2017-12-10T19:46:54.546Z,17.27
2017-12-10T19:49:24.070Z,10.15
2017-12-10T19:51:56.374Z,10.45
2017-12-10T19:54:25.723Z,11.05
2017-12-10T19:56:54.730Z,9.60
2017-12-10T19:59:23.890Z,6.37
2017-12-10T20:01:53.221Z,7.55
2017-12-10T20:04:22.215Z,10.88
2017-12-10T20:06:51.421Z,10.30
2017-12-10T20:09:20.336Z,14.30
2017-12-10T20:11:50.499Z,7.55
2017-12-10T20:14:19.709Z,12.13
2017-12-10T20:16:49.194Z,7.40
2017-12-10T20:19:19.612Z,6.32
2017-12-10T20:21:49.627Z,5.82
2017-12-10T20:24:18.863Z,7.30
2017-12-10T20:26:48.257Z,8.95
2017-12-10T20:29:17.565Z,10.57
2017-12-10T20:31:47.072Z,8.80
2017-12-10T20:34:16.367Z,6.78
2017-12-10T20:36:47.192Z,10.15
2017-12-10T20:39:16.315Z,7.28
2017-12-10T20:41:45.427Z,7.47
2017-12-10T20:44:14.413Z,7.35
2017-12-10T20:46:43.762Z,7.37
2017-12-10T20:49:12.851Z,8.15
2017-12-10T20:51:42.278Z,8.95
2017-12-10T20:54:11.456Z,5.15
2017-12-10T20:56:40.500Z,4.35
2017-12-10T20:59:10.978Z,11.07
2017-12-10T21:01:41.262Z,5.85
2017-12-10T21:04:10.514Z,6.00
2017-12-10T21:06:40.474Z,5.05
2017-12-10T21:09:09.830Z,6.37
2017-12-10T21:11:39.007Z,6.32
2017-12-10T21:14:08.052Z,8.00
2017-12-10T21:16:37.729Z,9.15
2017-12-10T21:19:06.917Z,7.65
2017-12-10T21:21:37.238Z,5.75
2017-12-10T21:24:06.376Z,4.85
2017-12-10T21:26:36.582Z,8.40
2017-12-10T21:31:40.234Z,5.30
2017-12-10T21:34:09.315Z,3.05
2017-12-10T21:36:39.480Z,4.32
2017-12-10T21:39:08.637Z,4.20
2017-12-10T21:41:37.756Z,3.70
2017-12-10T21:44:06.891Z,4.57
2017-12-10T21:46:36.022Z,3.17
2017-12-10T21:49:05.096Z,3.95
2017-12-10T21:51:35.470Z,5.80
2017-12-10T21:54:04.643Z,3.28
2017-12-10T21:56:33.733Z,4.55
2017-12-10T21:59:05.528Z,5.00
2017-12-10T22:01:34.703Z,10.40
2017-12-10T22:04:04.898Z,11.98
2017-12-10T22:06:36.043Z,11.60
2017-12-10T22:09:06.782Z,12.63
2017-12-10T22:11:36.010Z,11.10
2017-12-10T22:14:05.377Z,12.00
2017-12-10T22:16:34.649Z,16.73
2017-12-10T22:19:04.618Z,14.38
2017-12-10T22:21:33.791Z,20.25
2017-12-10T22:24:02.996Z,14.87
2017-12-10T22:29:08.765Z,15.00
2017-12-10T22:31:38.167Z,19.70
2017-12-10T22:34:09.205Z,13.73
2017-12-10T22:36:39.964Z,13.73
2017-12-10T22:39:10.846Z,12.50
2017-12-10T22:41:44.585Z,12.37
2017-12-10T22:44:13.884Z,14.63
2017-12-10T22:46:43.109Z,19.55
2017-12-10T22:49:12.209Z,19.35
2017-12-10T22:51:43.014Z,15.45
2017-12-10T22:54:12.754Z,15.65
2017-12-10T22:56:41.769Z,13.68
2017-12-10T22:59:10.942Z,13.90
2017-12-10T23:01:39.852Z,17.15
2017-12-10T23:04:08.753Z,12.20
2017-12-10T23:06:38.028Z,11.82
2017-12-10T23:09:07.747Z,9.73
2017-12-10T23:11:36.803Z,15.70
2017-12-10T23:14:06.033Z,6.93
2017-12-10T23:16:34.987Z,7.65
2017-12-10T23:19:03.993Z,6.03
2017-12-10T23:21:34.725Z,5.15
2017-12-10T23:24:03.812Z,5.97
2017-12-10T23:26:33.018Z,6.50
2017-12-10T23:29:02.171Z,9.77
2017-12-10T23:31:32.340Z,7.90
2017-12-10T23:34:01.531Z,11.43
2017-12-10T23:36:30.702Z,12.80
2017-12-10T23:39:00.335Z,10.57
2017-12-10T23:41:29.360Z,10.52
2017-12-10T23:43:58.386Z,8.40
2017-12-10T23:46:27.526Z,6.37
2017-12-10T23:48:56.573Z,7.32
2017-12-10T23:51:27.558Z,6.03
2017-12-10T23:53:56.559Z,8.05
2017-12-10T23:56:25.583Z,10.93
2017-12-10T23:58:56.487Z,5.40
